createdAt,value
2023-04-25T00:01:31.510Z,10.81
2023-04-25T00:03:58.767Z,10.37
2023-04-25T00:06:27.749Z,10.30
2023-04-25T00:08:54.604Z,10.20
2023-04-25T00:11:21.783Z,10.31
2023-04-25T00:13:48.932Z,10.41
2023-04-25T00:16:16.869Z,10.44
2023-04-25T00:18:43.966Z,10.51
2023-04-25T00:21:11.317Z,10.53
2023-04-25T00:23:39.692Z,10.48
2023-04-25T00:26:34.998Z,10.54
2023-04-25T00:29:10.140Z,10.53
2023-04-25T00:31:46.389Z,10.39
2023-04-25T00:34:13.291Z,10.23
2023-04-25T00:36:40.173Z,10.18
2023-04-25T00:39:08.796Z,10.17
2023-04-25T00:41:36.605Z,10.08
2023-04-25T00:44:04.868Z,10.17
2023-04-25T00:46:32.427Z,10.26
2023-04-25T00:48:59.395Z,10.18
2023-04-25T00:51:27.259Z,10.15
2023-04-25T00:53:55.501Z,10.13
2023-04-25T00:56:24.203Z,10.19
2023-04-25T00:58:54.715Z,10.10
2023-04-25T01:01:21.840Z,10.11
2023-04-25T01:03:50.804Z,10.11
2023-04-25T01:06:18.263Z,10.10
2023-04-25T01:08:45.726Z,9.91
2023-04-25T01:11:12.759Z,9.95
2023-04-25T01:13:41.332Z,10.01
2023-04-25T01:16:08.743Z,10.03
2023-04-25T01:18:40.251Z,9.96
2023-04-25T01:21:10.946Z,10.06
2023-04-25T01:23:41.393Z,10.08
2023-04-25T01:26:11.105Z,10.13
2023-04-25T01:28:39.495Z,10.21
2023-04-25T01:31:06.615Z,10.27
2023-04-25T01:33:34.114Z,10.30
2023-04-25T01:36:01.691Z,10.35
2023-04-25T01:38:30.725Z,10.37
2023-04-25T01:40:57.973Z,10.40
2023-04-25T01:43:25.436Z,10.45
2023-04-25T01:45:53.394Z,10.51
2023-04-25T01:48:20.475Z,10.52
2023-04-25T01:50:47.991Z,10.49
2023-04-25T01:53:15.386Z,10.51
2023-04-25T01:56:08.346Z,10.51
2023-04-25T01:58:38.246Z,10.51
2023-04-25T02:01:12.798Z,10.47
2023-04-25T02:03:46.775Z,10.49
2023-04-25T02:06:59.791Z,10.47
2023-04-25T02:09:35.129Z,10.45
2023-04-25T02:12:15.107Z,10.33
2023-04-25T02:15:08.806Z,10.37
2023-04-25T02:17:54.416Z,10.34
2023-04-25T02:20:23.569Z,10.20
2023-04-25T02:22:50.648Z,10.14
2023-04-25T02:25:18.078Z,10.17
2023-04-25T02:27:47.380Z,10.18
2023-04-25T02:30:15.090Z,10.03
2023-04-25T02:32:42.223Z,9.94
2023-04-25T02:35:10.939Z,9.92
2023-04-25T02:37:40.167Z,9.85
2023-04-25T02:40:08.963Z,9.78
2023-04-25T02:42:37.130Z,9.79
2023-04-25T02:45:06.836Z,9.76
2023-04-25T02:47:35.310Z,9.87
2023-04-25T02:50:02.201Z,9.98
2023-04-25T02:52:29.607Z,10.07
2023-04-25T02:55:04.747Z,10.14
2023-04-25T02:57:32.920Z,10.16
2023-04-25T02:59:59.992Z,10.03
2023-04-25T03:02:47.607Z,10.06
2023-04-25T03:05:14.849Z,10.07
2023-04-25T03:07:42.170Z,10.11
2023-04-25T03:11:01.246Z,10.17
2023-04-25T03:13:28.639Z,10.14
2023-04-25T03:16:06.183Z,10.16
2023-04-25T03:18:36.388Z,9.91
2023-04-25T03:21:03.803Z,9.99
2023-04-25T03:23:32.250Z,10.07
2023-04-25T03:25:59.100Z,10.13
2023-04-25T03:28:46.393Z,10.16
2023-04-25T03:31:13.509Z,10.20
2023-04-25T03:33:41.893Z,10.25
2023-04-25T03:36:09.620Z,10.27
2023-04-25T03:38:37.000Z,10.28
2023-04-25T03:41:05.847Z,10.25
2023-04-25T03:43:42.908Z,10.23
2023-04-25T03:46:13.254Z,10.15
2023-04-25T03:48:42.914Z,10.14
2023-04-25T03:51:13.822Z,10.13
2023-04-25T03:53:44.126Z,10.09
2023-04-25T03:56:20.054Z,10.06
2023-04-25T03:58:51.327Z,10.02
2023-04-25T04:01:20.672Z,9.98
2023-04-25T04:03:49.905Z,10.02
2023-04-25T04:06:17.937Z,10.00
2023-04-25T04:08:48.852Z,10.01
2023-04-25T04:11:15.883Z,9.96
2023-04-25T04:13:42.833Z,10.00
2023-04-25T04:16:10.232Z,10.00
2023-04-25T04:18:37.268Z,10.05
2023-04-25T04:21:07.540Z,9.97
2023-04-25T04:23:38.997Z,9.90
2023-04-25T04:26:06.884Z,9.93
2023-04-25T04:28:51.705Z,9.92
2023-04-25T04:31:38.887Z,9.91
2023-04-25T04:34:06.392Z,9.97
2023-04-25T04:36:36.202Z,9.89
2023-04-25T04:39:43.721Z,9.89
2023-04-25T04:42:41.562Z,9.88
2023-04-25T04:45:19.982Z,9.87
2023-04-25T04:47:55.960Z,9.86
2023-04-25T04:50:41.390Z,9.84
2023-04-25T04:53:29.582Z,9.84
2023-04-25T04:56:17.613Z,9.90
2023-04-25T04:58:47.785Z,9.90
2023-04-25T05:01:35.701Z,9.88
2023-04-25T05:04:17.765Z,9.87
2023-04-25T05:07:03.778Z,9.89
2023-04-25T05:09:54.290Z,9.90
2023-04-25T05:12:40.137Z,9.93
2023-04-25T05:15:29.791Z,9.94
2023-04-25T05:18:23.699Z,9.91
2023-04-25T05:21:05.828Z,9.99
2023-04-25T05:23:50.820Z,9.99
2023-04-25T05:26:46.199Z,9.97
2023-04-25T05:29:32.313Z,9.97
2023-04-25T05:32:07.083Z,9.98
2023-04-25T05:34:34.704Z,10.02
2023-04-25T05:37:05.815Z,10.07
2023-04-25T05:39:35.876Z,10.20
2023-04-25T05:42:27.688Z,10.45
2023-04-25T05:45:23.162Z,10.66
2023-04-25T05:48:02.725Z,10.87
2023-04-25T05:50:58.273Z,10.81
2023-04-25T05:53:52.824Z,10.99
2023-04-25T05:56:20.092Z,11.20
2023-04-25T05:58:53.241Z,11.28
2023-04-25T06:01:23.289Z,11.37
2023-04-25T06:03:51.774Z,11.25
2023-04-25T06:06:19.038Z,11.25
2023-04-25T06:08:47.178Z,11.23
2023-04-25T06:11:14.325Z,11.25
2023-04-25T06:13:42.287Z,11.43
2023-04-25T06:16:10.997Z,11.80
2023-04-25T06:18:38.096Z,11.90
2023-04-25T06:21:05.725Z,11.97
2023-04-25T06:23:33.699Z,11.95
2023-04-25T06:26:07.296Z,12.02
2023-04-25T06:28:38.610Z,11.95
2023-04-25T06:31:05.829Z,11.94
2023-04-25T06:33:34.273Z,12.03
2023-04-25T06:36:01.466Z,12.05
2023-04-25T06:38:29.005Z,11.95
2023-04-25T06:40:57.707Z,11.77
2023-04-25T06:43:26.176Z,11.76
2023-04-25T06:46:06.432Z,11.78
2023-04-25T06:48:40.955Z,11.79
2023-04-25T06:51:08.233Z,11.62
2023-04-25T06:53:36.840Z,11.51
2023-04-25T06:56:07.068Z,11.42
2023-04-25T06:58:53.921Z,11.33
2023-04-25T07:01:39.313Z,11.22
2023-04-25T07:04:12.856Z,11.13
2023-04-25T07:06:46.429Z,11.16
2023-04-25T07:09:17.593Z,11.18
2023-04-25T07:11:47.349Z,11.20
2023-04-25T07:14:14.301Z,11.22
2023-04-25T07:16:41.532Z,11.22
2023-04-25T07:19:08.855Z,11.26
2023-04-25T07:21:37.663Z,11.25
2023-04-25T07:24:07.158Z,11.26
2023-04-25T07:26:38.993Z,11.21
2023-04-25T07:29:17.300Z,11.19
2023-04-25T07:31:44.295Z,11.10
2023-04-25T07:34:11.280Z,11.18
2023-04-25T07:36:40.666Z,11.20
2023-04-25T07:39:08.584Z,11.26
2023-04-25T07:41:35.872Z,11.31
2023-04-25T07:44:02.874Z,11.31
2023-04-25T07:46:31.887Z,11.22
2023-04-25T07:48:59.072Z,11.19
2023-04-25T07:51:25.995Z,11.11
2023-04-25T07:53:56.780Z,11.07
2023-04-25T07:56:23.860Z,11.09
2023-04-25T07:58:52.875Z,11.13
2023-04-25T08:01:20.905Z,11.04
2023-04-25T08:03:56.512Z,10.79
2023-04-25T08:06:30.849Z,10.80
2023-04-25T08:09:09.451Z,11.00
2023-04-25T08:11:39.905Z,11.14
2023-04-25T08:14:10.686Z,11.32
2023-04-25T08:16:39.013Z,11.31
2023-04-25T08:19:07.530Z,11.41
2023-04-25T08:21:35.313Z,11.45
2023-04-25T08:24:06.551Z,11.48
2023-04-25T08:26:39.500Z,11.41
2023-04-25T08:29:07.413Z,11.25
2023-04-25T08:31:38.201Z,11.27
2023-04-25T08:34:08.257Z,11.25
2023-04-25T08:36:51.173Z,11.22
2023-04-25T08:39:27.288Z,11.21
2023-04-25T08:42:22.705Z,11.24
2023-04-25T08:44:50.609Z,11.23
2023-04-25T08:47:23.458Z,11.24
2023-04-25T08:49:55.947Z,11.17
2023-04-25T08:52:24.722Z,11.21
2023-04-25T08:54:56.196Z,11.20
2023-04-25T08:57:25.891Z,11.22
2023-04-25T08:59:54.839Z,11.23
2023-04-25T09:02:23.610Z,11.28
2023-04-25T09:04:54.854Z,11.36
2023-04-25T09:07:24.688Z,11.37
2023-04-25T09:09:54.558Z,11.38
2023-04-25T09:12:24.350Z,11.55
2023-04-25T09:15:07.990Z,11.63
2023-04-25T09:17:57.121Z,11.80
2023-04-25T09:20:33.370Z,11.86
2023-04-25T09:23:05.089Z,11.99
2023-04-25T09:25:37.630Z,12.11
2023-04-25T09:28:07.704Z,12.18
2023-04-25T09:30:36.811Z,12.14
2023-04-25T09:33:14.196Z,12.16
2023-04-25T09:35:46.845Z,12.12
2023-04-25T09:38:23.274Z,12.05
2023-04-25T09:41:17.945Z,11.86
2023-04-25T09:43:59.310Z,11.65
2023-04-25T09:46:35.394Z,11.38
2023-04-25T09:49:08.569Z,10.98
2023-04-25T09:51:55.541Z,10.63
2023-04-25T09:54:23.645Z,10.62
2023-04-25T09:56:55.296Z,10.61
2023-04-25T09:59:24.338Z,10.58
2023-04-25T10:01:53.226Z,10.41
2023-04-25T10:04:34.042Z,10.43
2023-04-25T10:07:10.513Z,10.55
2023-04-25T10:09:40.394Z,10.61
2023-04-25T10:12:08.371Z,10.67
2023-04-25T10:14:36.794Z,10.75
2023-04-25T10:17:04.673Z,10.87
2023-04-25T10:19:33.433Z,10.89
2023-04-25T10:22:09.311Z,10.82
2023-04-25T10:24:39.871Z,10.82
2023-04-25T10:27:08.186Z,10.80
2023-04-25T10:29:36.863Z,10.89
2023-04-25T10:32:04.711Z,10.89
2023-04-25T10:34:43.954Z,10.89
2023-04-25T10:37:12.682Z,10.83
2023-04-25T10:39:41.938Z,10.51
2023-04-25T10:42:09.683Z,10.43
2023-04-25T10:44:39.257Z,10.45
2023-04-25T10:47:09.229Z,10.48
2023-04-25T10:49:38.844Z,10.28
2023-04-25T10:52:25.212Z,10.34
2023-04-25T10:54:54.827Z,10.55
2023-04-25T10:57:39.850Z,10.74
2023-04-25T11:00:15.970Z,10.95
2023-04-25T11:02:46.638Z,11.19
2023-04-25T11:05:24.170Z,11.44
2023-04-25T11:10:27.445Z,11.30
2023-04-25T11:12:54.646Z,11.32
2023-04-25T11:15:23.396Z,11.38
2023-04-25T11:17:53.751Z,11.60
2023-04-25T11:20:21.595Z,11.83
2023-04-25T11:22:50.369Z,12.04
2023-04-25T11:25:18.484Z,12.05
2023-04-25T11:27:52.253Z,11.93
2023-04-25T11:30:23.296Z,11.56
2023-04-25T11:32:50.316Z,11.69
2023-04-25T11:35:17.774Z,11.74
2023-04-25T11:37:45.462Z,10.83
2023-04-25T11:40:13.017Z,10.08
2023-04-25T11:42:45.150Z,9.81
2023-04-25T11:45:13.431Z,9.96
2023-04-25T11:47:42.944Z,10.40
2023-04-25T11:50:12.890Z,10.65
2023-04-25T11:52:40.986Z,10.34
2023-04-25T11:55:11.700Z,10.75
2023-04-25T11:57:41.895Z,10.93
2023-04-25T12:00:18.090Z,11.06
2023-04-25T12:02:52.763Z,11.26
2023-04-25T12:05:32.078Z,11.42
2023-04-25T12:08:11.418Z,11.19
2023-04-25T12:10:40.998Z,10.96
2023-04-25T12:13:25.846Z,10.92
2023-04-25T12:15:56.030Z,10.72
2023-04-25T12:18:27.088Z,10.64
2023-04-25T12:20:55.421Z,11.16
2023-04-25T12:23:27.098Z,11.54
2023-04-25T12:25:54.401Z,11.37
2023-04-25T12:28:23.926Z,11.70
2023-04-25T12:30:56.527Z,12.15
2023-04-25T12:33:24.133Z,12.57
2023-04-25T12:35:53.388Z,12.80
2023-04-25T12:38:26.144Z,13.01
2023-04-25T12:40:53.574Z,12.98
2023-04-25T12:43:21.061Z,13.02
2023-04-25T12:45:49.695Z,13.21
2023-04-25T12:48:18.843Z,13.43
2023-04-25T12:50:46.847Z,13.35
2023-04-25T12:53:17.048Z,13.09
2023-04-25T12:55:44.278Z,13.05
2023-04-25T12:58:11.891Z,12.92
2023-04-25T13:00:38.868Z,12.96
2023-04-25T13:03:10.549Z,13.13
2023-04-25T13:05:38.724Z,13.24
2023-04-25T13:08:06.238Z,13.50
2023-04-25T13:10:34.765Z,13.74
2023-04-25T13:13:01.818Z,13.87
2023-04-25T13:15:28.985Z,13.83
2023-04-25T13:17:56.824Z,13.79
2023-04-25T13:20:25.160Z,13.75
2023-04-25T13:22:52.233Z,13.94
2023-04-25T13:25:19.186Z,13.96
2023-04-25T13:27:47.716Z,14.03
2023-04-25T13:31:04.649Z,14.24
2023-04-25T13:33:31.949Z,14.26
2023-04-25T13:35:58.937Z,14.43
2023-04-25T13:38:27.935Z,14.28
2023-04-25T13:40:55.167Z,14.12
2023-04-25T13:43:23.852Z,14.22
2023-04-25T13:45:54.858Z,14.14
2023-04-25T13:48:22.725Z,14.24
2023-04-25T13:50:50.599Z,14.07
2023-04-25T13:53:32.983Z,13.92
2023-04-25T13:56:02.723Z,13.97
2023-04-25T13:58:31.147Z,13.97
2023-04-25T14:00:57.959Z,13.79
2023-04-25T14:03:26.542Z,13.61
2023-04-25T14:05:53.920Z,13.88
2023-04-25T14:08:21.093Z,13.94
2023-04-25T14:10:48.189Z,13.87
2023-04-25T14:13:15.256Z,13.88
2023-04-25T14:15:43.943Z,13.90
2023-04-25T14:18:10.960Z,13.73
2023-04-25T14:20:39.182Z,13.78
2023-04-25T14:23:06.348Z,13.70
2023-04-25T14:25:33.801Z,13.81
2023-04-25T14:28:00.783Z,13.75
2023-04-25T14:30:27.660Z,13.90
2023-04-25T14:32:56.161Z,13.81
2023-04-25T14:35:23.061Z,13.58
2023-04-25T14:37:50.380Z,13.75
2023-04-25T14:40:17.565Z,13.65
2023-04-25T14:42:44.592Z,13.81
2023-04-25T14:45:13.027Z,13.79
2023-04-25T14:47:41.213Z,13.71
2023-04-25T14:50:12.151Z,13.70
2023-04-25T14:52:39.115Z,13.64
2023-04-25T14:55:08.199Z,13.70
2023-04-25T14:57:36.203Z,13.91
2023-04-25T15:00:05.955Z,14.11
2023-04-25T15:02:33.399Z,14.16
2023-04-25T15:05:01.165Z,14.23
2023-04-25T15:07:32.427Z,14.20
2023-04-25T15:09:59.665Z,14.23
2023-04-25T15:12:26.759Z,14.02
2023-04-25T15:14:53.784Z,14.15
2023-04-25T15:17:20.705Z,13.84
2023-04-25T15:19:47.692Z,13.79
2023-04-25T15:22:14.736Z,13.74
2023-04-25T15:24:44.200Z,13.82
2023-04-25T15:27:11.207Z,13.88
2023-04-25T15:29:38.769Z,13.88
2023-04-25T15:32:05.916Z,13.94
2023-04-25T15:34:34.696Z,13.97
2023-04-25T15:37:02.255Z,13.87
2023-04-25T15:39:30.961Z,13.75
2023-04-25T15:41:59.268Z,13.65
2023-04-25T15:44:26.136Z,13.70
2023-04-25T15:46:55.063Z,13.80
2023-04-25T15:49:22.345Z,13.81
2023-04-25T15:51:49.350Z,13.68
2023-04-25T15:54:16.373Z,13.58
2023-04-25T15:56:44.628Z,13.51
2023-04-25T15:59:13.457Z,13.55
2023-04-25T16:01:40.792Z,13.62
2023-04-25T16:04:07.975Z,13.62
2023-04-25T16:06:37.014Z,13.70
2023-04-25T16:09:04.044Z,13.51
2023-04-25T16:11:31.994Z,13.42
2023-04-25T16:13:59.118Z,13.46
2023-04-25T16:16:27.469Z,13.40
2023-04-25T16:18:55.190Z,13.38
2023-04-25T16:21:22.139Z,13.32
2023-04-25T16:23:49.898Z,13.27
2023-04-25T16:26:16.867Z,13.26
2023-04-25T16:28:43.712Z,13.10
2023-04-25T16:31:10.621Z,12.98
2023-04-25T16:33:38.848Z,12.88
2023-04-25T16:36:07.441Z,12.81
2023-04-25T16:38:34.828Z,12.83
2023-04-25T16:41:02.127Z,12.78
2023-04-25T16:43:31.123Z,12.71
2023-04-25T16:45:58.046Z,12.62
2023-04-25T16:48:27.251Z,12.53
2023-04-25T16:50:57.193Z,12.38
2023-04-25T16:56:28.090Z,12.33
2023-04-25T16:58:59.068Z,12.30
2023-04-25T17:01:27.206Z,12.24
2023-04-25T17:03:55.640Z,12.13
2023-04-25T17:06:24.972Z,12.09
2023-04-25T17:08:52.280Z,12.05
2023-04-25T17:11:19.602Z,12.05
2023-04-25T17:13:46.615Z,11.98
2023-04-25T17:16:14.872Z,12.06
2023-04-25T17:18:42.429Z,12.03
2023-04-25T17:21:09.486Z,11.96
2023-04-25T17:23:39.764Z,11.92
2023-04-25T17:26:09.155Z,11.93
2023-04-25T17:28:36.463Z,11.87
2023-04-25T17:31:03.704Z,11.75
2023-04-25T17:33:31.003Z,11.68
2023-04-25T17:35:57.858Z,11.65
2023-04-25T17:38:25.251Z,11.62
2023-04-25T17:40:53.783Z,11.61
2023-04-25T17:43:21.009Z,11.61
2023-04-25T17:45:48.030Z,11.55
2023-04-25T17:48:15.063Z,11.34
2023-04-25T17:50:42.065Z,11.31
2023-04-25T17:53:09.136Z,11.26
2023-04-25T17:55:36.230Z,11.18
2023-04-25T17:58:04.765Z,11.14
2023-04-25T18:00:31.762Z,11.08
2023-04-25T18:03:00.892Z,11.03
2023-04-25T18:05:29.860Z,11.01
2023-04-25T18:07:58.237Z,10.92
2023-04-25T18:10:25.203Z,10.84
2023-04-25T18:12:52.298Z,10.81
2023-04-25T18:15:23.912Z,10.86
2023-04-25T18:17:50.870Z,10.83
2023-04-25T18:20:17.917Z,10.86
2023-04-25T18:22:45.868Z,10.74
2023-04-25T18:25:14.346Z,10.66
2023-04-25T18:27:41.915Z,10.60
2023-04-25T18:30:11.391Z,10.54
2023-04-25T18:32:40.050Z,10.54
2023-04-25T18:35:10.319Z,10.53
2023-04-25T18:37:37.541Z,10.57
2023-04-25T18:40:06.608Z,10.59
2023-04-25T18:42:34.262Z,10.65
2023-04-25T18:45:01.215Z,10.63
2023-04-25T18:47:28.172Z,10.66
2023-04-25T18:54:04.174Z,10.66
2023-04-25T18:56:31.198Z,10.64
2023-04-25T18:58:58.455Z,10.60
2023-04-25T19:01:26.476Z,10.57
2023-04-25T19:03:54.404Z,10.59
2023-04-25T19:06:25.966Z,10.60
2023-04-25T19:08:54.066Z,10.59
2023-04-25T19:11:22.959Z,10.59
2023-04-25T19:13:51.205Z,10.53
2023-04-25T19:16:40.069Z,10.51
2023-04-25T19:19:09.432Z,10.52
2023-04-25T19:21:36.572Z,10.51
2023-04-25T19:24:04.810Z,10.49
2023-04-25T19:26:34.605Z,10.51
2023-04-25T19:29:07.876Z,10.43
2023-04-25T19:31:37.452Z,10.36
2023-04-25T19:34:06.464Z,10.36
2023-04-25T19:36:35.327Z,10.29
2023-04-25T19:39:10.212Z,10.25
2023-04-25T19:41:42.518Z,10.23
2023-04-25T19:44:10.369Z,10.19
2023-04-25T19:46:37.629Z,10.20
2023-04-25T19:49:07.093Z,10.14
2023-04-25T19:51:35.863Z,10.18
2023-04-25T19:54:02.792Z,10.19
2023-04-25T19:56:30.647Z,10.10
2023-04-25T19:58:58.995Z,10.06
2023-04-25T20:01:25.974Z,10.06
2023-04-25T20:03:53.396Z,10.07
2023-04-25T20:06:20.872Z,10.08
2023-04-25T20:08:47.919Z,10.09
2023-04-25T20:11:17.642Z,10.06
2023-04-25T20:13:44.669Z,10.03
2023-04-25T20:16:13.273Z,10.00
2023-04-25T20:18:40.288Z,9.98
2023-04-25T20:21:07.722Z,9.93
2023-04-25T20:23:34.697Z,9.93
2023-04-25T20:26:01.753Z,9.97
2023-04-25T20:28:28.804Z,9.95
2023-04-25T20:30:55.732Z,9.91
2023-04-25T20:33:24.004Z,9.89
2023-04-25T20:35:52.508Z,9.84
2023-04-25T20:38:19.405Z,9.79
2023-04-25T20:40:46.428Z,9.82
2023-04-25T20:43:13.424Z,9.72
2023-04-25T20:45:40.399Z,9.72
2023-04-25T20:48:07.903Z,9.74
2023-04-25T20:50:36.276Z,9.77
2023-04-25T20:53:03.409Z,9.79
2023-04-25T20:55:30.221Z,9.83
2023-04-25T20:57:58.166Z,9.81
2023-04-25T21:00:25.294Z,9.82
2023-04-25T21:02:52.532Z,9.80
2023-04-25T21:05:20.221Z,9.80
2023-04-25T21:07:48.613Z,9.79
2023-04-25T21:10:16.588Z,9.71
2023-04-25T21:12:44.149Z,9.63
2023-04-25T21:15:12.650Z,9.58
2023-04-25T21:17:40.247Z,9.53
2023-04-25T21:20:09.308Z,9.53
2023-04-25T21:22:36.623Z,9.49
2023-04-25T21:25:06.047Z,9.51
2023-04-25T21:27:33.654Z,9.49
2023-04-25T21:30:00.589Z,9.47
2023-04-25T21:32:27.594Z,9.44
2023-04-25T21:34:54.785Z,9.45
2023-04-25T21:37:21.650Z,9.42
2023-04-25T21:39:48.506Z,9.43
2023-04-25T21:42:16.895Z,9.43
2023-04-25T21:44:43.855Z,9.42
2023-04-25T21:47:10.862Z,9.47
2023-04-25T21:49:37.955Z,9.50
2023-04-25T21:52:05.633Z,9.52
2023-04-25T21:54:32.541Z,9.53
2023-04-25T21:56:59.378Z,9.57
2023-04-25T21:59:27.737Z,9.59
2023-04-25T22:01:55.603Z,9.57
2023-04-25T22:04:22.721Z,9.55
2023-04-25T22:06:50.214Z,9.55
2023-04-25T22:09:17.161Z,9.58
2023-04-25T22:11:44.091Z,9.62
2023-04-25T22:14:13.291Z,9.65
2023-04-25T22:16:41.730Z,9.68
2023-04-25T22:19:08.745Z,9.70
2023-04-25T22:21:36.154Z,9.70
2023-04-25T22:24:03.240Z,9.73
2023-04-25T22:26:30.254Z,9.71
2023-04-25T22:28:57.377Z,9.68
2023-04-25T22:31:24.612Z,9.65
2023-04-25T22:33:52.941Z,9.59
2023-04-25T22:36:19.883Z,9.57
2023-04-25T22:38:47.450Z,9.56
2023-04-25T22:41:14.488Z,9.56
2023-04-25T22:43:41.589Z,9.54
2023-04-25T22:46:15.778Z,9.60
2023-04-25T22:48:42.804Z,9.54
2023-04-25T22:51:11.742Z,9.54
2023-04-25T22:53:41.416Z,9.53
2023-04-25T22:56:09.505Z,9.50
2023-04-25T22:58:36.744Z,9.46
2023-04-25T23:01:05.275Z,9.49
2023-04-25T23:03:32.683Z,9.45
2023-04-25T23:06:00.665Z,9.41
2023-04-25T23:08:29.250Z,9.39
2023-04-25T23:10:56.113Z,9.35
2023-04-25T23:13:23.097Z,9.34
2023-04-25T23:15:50.106Z,9.30
2023-04-25T23:18:17.238Z,9.20
2023-04-25T23:20:44.457Z,9.20
2023-04-25T23:23:11.489Z,9.19
2023-04-25T23:25:39.795Z,9.17
2023-04-25T23:28:07.164Z,9.05
2023-04-25T23:30:34.112Z,8.98
2023-04-25T23:33:01.214Z,8.95
2023-04-25T23:35:28.622Z,8.96
2023-04-25T23:37:55.676Z,8.93
2023-04-25T23:40:23.274Z,8.93
2023-04-25T23:42:51.496Z,8.91
2023-04-25T23:45:18.555Z,8.92
2023-04-25T23:47:45.520Z,8.89
2023-04-25T23:50:12.852Z,8.87
2023-04-25T23:52:39.724Z,8.89
2023-04-25T23:55:07.492Z,8.87
2023-04-25T23:57:34.363Z,8.87
